Denver, Colorado
Traffic Map
Current Weather Conditions
Denver, Colorado
Few Clouds
Few Clouds

Feels Like: 0°
Wind Chill: Ceiling: Unl
Heat Index: Visibility: 10mi
Dew Point: -1° Wind: 7mph
Humidity: 76% Direction: 180° (S)
Pressure: 29.93in Gusts: 0mph
Raw Report DataKBKF 211058Z 18006KT 10SM FEW090 FEW200 03/M01 A2993 RMK AO2A SLP112 T00321006
Traffic Incident Summary
Active as of:
Severity:
Category:
InformationThere was an issue retrieving the traffic information for this location. Please try a different location or try again shortly.
Advertisements
Track Severe Weather on mobile